Time;durP1;ratioP1;P1;durP2;ratioP2;P2;SDS_P1;SDS_P2;PMS_P1;PMS_P2;Temp;Humidity;BMP_temperature;BMP_pressure;BME280_temperature;BME280_humidity;BME280_pressure;Samples;Min_cycle;Max_cycle;Signal;HPM_P1;HPM_P2
2024/01/19 00:02:18;;;;;;;7.00;4.90;;;;;;;-147.86;100.00;-17609.17;105708;1260;63318;-57
2024/01/19 00:04:46;;;;;;;7.30;4.70;;;;;;;-147.86;100.00;-17609.17;105671;1260;71392;-57
2024/01/19 00:07:14;;;;;;;6.50;4.80;;;;;;;-147.86;100.00;-17609.17;105582;1256;60767;-56
2024/01/19 00:09:42;;;;;;;8.30;5.30;;;;;;;-147.86;100.00;-17609.17;105687;1255;59651;-56
2024/01/19 00:12:10;;;;;;;6.30;4.60;;;;;;;-147.86;100.00;-17609.17;105605;1254;72496;-59
2024/01/19 00:14:38;;;;;;;8.40;5.40;;;;;;;-147.86;100.00;-17609.17;105617;1254;64614;-56
2024/01/19 00:17:06;;;;;;;6.20;4.90;;;;;;;-147.86;100.00;-17609.17;105636;1256;71600;-59
2024/01/19 00:19:34;;;;;;;6.40;5.30;;;;;;;-147.86;100.00;-17609.17;105618;1255;60098;-59
2024/01/19 00:22:01;;;;;;;5.60;5.00;;;;;;;-147.86;100.00;-17609.17;105617;1256;59726;-57
2024/01/19 00:24:29;;;;;;;6.80;5.10;;;;;;;-147.86;100.00;-17609.17;105588;1254;71759;-55
2024/01/19 00:26:57;;;;;;;5.70;4.90;;;;;;;-147.86;100.00;-17609.17;105621;1261;63217;-58
2024/01/19 00:29:25;;;;;;;5.70;4.90;;;;;;;-147.86;100.00;-17609.17;105595;1260;73159;-58
2024/01/19 00:31:53;;;;;;;5.20;4.60;;;;;;;-147.86;100.00;-17609.17;105664;1257;60429;-56
2024/01/19 00:34:21;;;;;;;4.90;4.50;;;;;;;-147.86;100.00;-17609.17;105613;1254;59631;-59
2024/01/19 00:36:49;;;;;;;5.30;4.70;;;;;;;-147.86;100.00;-17609.17;105602;1254;70895;-55
2024/01/19 00:39:17;;;;;;;6.90;5.40;;;;;;;-147.86;100.00;-17609.17;105688;1254;63307;-57
2024/01/19 00:41:45;;;;;;;5.80;5.20;;;;;;;-147.86;100.00;-17609.17;105594;1254;70764;-54
2024/01/19 00:44:13;;;;;;;6.30;5.10;;;;;;;-147.86;100.00;-17609.17;105621;1259;60461;-57
2024/01/19 00:46:41;;;;;;;5.20;4.60;;;;;;;-147.86;100.00;-17609.17;105576;1254;59991;-56
2024/01/19 00:49:08;;;;;;;7.10;4.70;;;;;;;-147.86;100.00;-17609.17;105577;1260;73033;-58
2024/01/19 00:51:37;;;;;;;5.30;3.90;;;;;;;-147.86;100.00;-17609.17;105644;1260;62142;-57
2024/01/19 00:54:05;;;;;;;4.90;4.40;;;;;;;-147.86;100.00;-17609.17;105551;1255;71750;-57
2024/01/19 00:56:32;;;;;;;4.00;3.70;;;;;;;-147.86;100.00;-17609.17;105604;1256;59717;-58
2024/01/19 00:59:01;;;;;;;4.10;3.80;;;;;;;-147.86;100.00;-17609.17;105618;1261;59730;-59
2024/01/19 01:01:29;;;;;;;3.70;3.40;;;;;;;-147.86;100.00;-17609.17;105592;1259;71123;-57
2024/01/19 01:03:58;;;;;;;4.50;3.80;;;;;;;-147.86;100.00;-17609.17;105652;1254;64371;-56
2024/01/19 01:06:27;;;;;;;4.20;3.80;;;;;;;-147.86;100.00;-17609.17;105623;1255;71385;-54
2024/01/19 01:08:59;;;;;;;3.30;3.00;;;;;;;-147.86;100.00;-17609.17;105672;1260;60442;-53
2024/01/19 01:11:27;;;;;;;3.70;3.00;;;;;;;-147.86;100.00;-17609.17;105588;1259;59626;-55
2024/01/19 01:13:56;;;;;;;3.20;2.90;;;;;;;-147.86;100.00;-17609.17;105648;1259;71717;-57
2024/01/19 01:16:26;;;;;;;3.60;3.30;;;;;;;-147.86;100.00;-17609.17;105629;1257;64370;-57
2024/01/19 01:18:54;;;;;;;3.80;3.40;;;;;;;-147.86;100.00;-17609.17;105634;1257;70394;-55
2024/01/19 01:21:22;;;;;;;3.90;3.00;;;;;;;-147.86;100.00;-17609.17;105608;1257;60495;-56
2024/01/19 01:23:50;;;;;;;3.00;2.70;;;;;;;-147.86;100.00;-17609.17;105616;1254;60162;-53
2024/01/19 01:26:18;;;;;;;3.30;3.00;;;;;;;-147.86;100.00;-17609.17;105627;1254;71793;-54
2024/01/19 01:28:46;;;;;;;2.60;2.40;;;;;;;-147.86;100.00;-17609.17;105634;1254;63221;-53
2024/01/19 01:31:14;;;;;;;2.90;2.70;;;;;;;-147.86;100.00;-17609.17;105584;1257;71222;-53
2024/01/19 01:33:41;;;;;;;3.30;2.80;;;;;;;-147.86;100.00;-17609.17;105580;1257;59729;-55
2024/01/19 01:36:09;;;;;;;2.50;2.40;;;;;;;-147.86;100.00;-17609.17;105642;1260;59633;-57
2024/01/19 01:38:38;;;;;;;2.40;2.20;;;;;;;-147.86;100.00;-17609.17;105655;1254;72109;-55
2024/01/19 01:41:06;;;;;;;2.30;2.20;;;;;;;-147.86;100.00;-17609.17;105612;1259;64443;-54
2024/01/19 01:43:34;;;;;;;2.50;2.30;;;;;;;-147.86;100.00;-17609.17;105642;1260;71456;-55
2024/01/19 01:46:02;;;;;;;2.50;2.20;;;;;;;-147.86;100.00;-17609.17;105597;1256;61648;-54
2024/01/19 01:48:32;;;;;;;2.20;2.00;;;;;;;-147.86;100.00;-17609.17;105651;1256;59617;-56
2024/01/19 01:51:00;;;;;;;1.80;1.70;;;;;;;-147.86;100.00;-17609.17;105603;1254;73115;-53
2024/01/19 01:53:28;;;;;;;1.80;1.70;;;;;;;-147.86;100.00;-17609.17;105642;1254;63121;-51
2024/01/19 01:55:56;;;;;;;1.70;1.60;;;;;;;-147.86;100.00;-17609.17;105584;1257;72262;-55
2024/01/19 01:58:24;;;;;;;1.90;1.80;;;;;;;-147.86;100.00;-17609.17;105605;1257;60573;-57
2024/01/19 02:00:51;;;;;;;1.70;1.40;;;;;;;-147.86;100.00;-17609.17;105568;1256;59972;-54
2024/01/19 02:03:19;;;;;;;1.70;1.60;;;;;;;-147.86;100.00;-17609.17;105526;1260;72091;-53
2024/01/19 02:05:47;;;;;;;1.50;1.40;;;;;;;-147.86;100.00;-17609.17;105569;1260;63201;-52
2024/01/19 02:08:15;;;;;;;1.20;1.10;;;;;;;-147.86;100.00;-17609.17;105530;1257;71447;-53
2024/01/19 02:10:43;;;;;;;1.20;1.20;;;;;;;-147.86;100.00;-17609.17;105593;1256;60552;-58
2024/01/19 02:13:11;;;;;;;1.50;1.30;;;;;;;-147.86;100.00;-17609.17;105524;1260;60444;-52
2024/01/19 02:15:38;;;;;;;1.70;1.30;;;;;;;-147.86;100.00;-17609.17;105548;1256;73041;-54
2024/01/19 02:18:06;;;;;;;1.00;1.00;;;;;;;-147.86;100.00;-17609.17;105600;1256;63456;-54
2024/01/19 02:20:34;;;;;;;0.90;0.90;;;;;;;-147.86;100.00;-17609.17;105526;1260;71343;-54
2024/01/19 02:23:02;;;;;;;1.10;1.10;;;;;;;-147.86;100.00;-17609.17;105567;1256;60604;-55
2024/01/19 02:25:30;;;;;;;0.80;0.80;;;;;;;-147.86;100.00;-17609.17;105607;1260;60347;-54
2024/01/19 02:27:58;;;;;;;1.00;1.00;;;;;;;-147.86;100.00;-17609.17;105507;1260;74688;-51
2024/01/19 02:30:25;;;;;;;1.20;0.90;;;;;;;-147.86;100.00;-17609.17;105585;1261;63445;-53
2024/01/19 02:32:53;;;;;;;1.10;1.10;;;;;;;-147.86;100.00;-17609.17;105594;1256;71399;-54
2024/01/19 02:35:21;;;;;;;0.80;0.80;;;;;;;-147.86;100.00;-17609.17;105596;1258;60509;-53
2024/01/19 02:37:48;;;;;;;1.00;1.00;;;;;;;-147.86;100.00;-17609.17;105502;1262;60337;-54
2024/01/19 02:40:16;;;;;;;0.70;0.70;;;;;;;-147.86;100.00;-17609.17;105588;1259;71777;-53
2024/01/19 02:42:44;;;;;;;2.30;0.80;;;;;;;-147.86;100.00;-17609.17;105614;1256;63725;-53
2024/01/19 02:45:12;;;;;;;1.00;0.90;;;;;;;-147.86;100.00;-17609.17;105660;1256;71623;-55
2024/01/19 02:47:40;;;;;;;0.80;0.60;;;;;;;-147.86;100.00;-17609.17;105563;1256;60505;-53
2024/01/19 02:50:08;;;;;;;0.90;0.60;;;;;;;-147.86;100.00;-17609.17;105632;1255;60755;-56
2024/01/19 02:52:36;;;;;;;0.70;0.70;;;;;;;-147.86;100.00;-17609.17;105645;1256;73801;-52
2024/01/19 02:55:06;;;;;;;0.70;0.70;;;;;;;-147.86;100.00;-17609.17;105547;1260;64390;-51
2024/01/19 02:57:33;;;;;;;0.70;0.70;;;;;;;-147.86;100.00;-17609.17;105644;1256;72667;-52
2024/01/19 03:00:01;;;;;;;0.60;0.60;;;;;;;-147.86;100.00;-17609.17;105568;1256;60454;-53
2024/01/19 03:02:28;;;;;;;0.50;0.50;;;;;;;-147.86;100.00;-17609.17;105595;1259;60546;-53
2024/01/19 03:04:56;;;;;;;1.00;0.50;;;;;;;-147.86;100.00;-17609.17;105578;1259;76324;-52
2024/01/19 03:07:24;;;;;;;0.50;0.50;;;;;;;-147.86;100.00;-17609.17;105597;1259;63216;-50
2024/01/19 03:09:51;;;;;;;0.60;0.60;;;;;;;-147.86;100.00;-17609.17;105555;1256;72623;-51
2024/01/19 03:12:19;;;;;;;0.60;0.60;;;;;;;-147.86;100.00;-17609.17;105594;1257;60479;-53
2024/01/19 03:14:47;;;;;;;0.60;0.60;;;;;;;-147.86;100.00;-17609.17;105608;1257;60604;-52
2024/01/19 03:17:14;;;;;;;0.60;0.60;;;;;;;-147.86;100.00;-17609.17;105590;1256;72512;-51
2024/01/19 03:19:43;;;;;;;0.60;0.60;;;;;;;-147.86;100.00;-17609.17;105619;1257;63212;-52
2024/01/19 03:22:11;;;;;;;0.80;0.80;;;;;;;-147.86;100.00;-17609.17;105582;1263;72616;-54
2024/01/19 03:24:39;;;;;;;0.60;0.60;;;;;;;-147.86;100.00;-17609.17;105557;1255;60462;-54
2024/01/19 03:27:06;;;;;;;0.40;0.40;;;;;;;-147.86;100.00;-17609.17;105620;1259;60391;-52
2024/01/19 03:29:34;;;;;;;0.50;0.50;;;;;;;-147.86;100.00;-17609.17;105584;1256;72776;-51
2024/01/19 03:44:58;;;;;;;0.60;0.60;;;;;;;-147.86;100.00;-17609.17;102654;1295;601216;-52
2024/01/19 03:47:26;;;;;;;0.70;0.70;;;;;;;-147.86;100.00;-17609.17;104865;1270;60011;-51
2024/01/19 03:49:54;;;;;;;0.50;0.50;;;;;;;-147.86;100.00;-17609.17;104865;1271;61627;-52
2024/01/19 03:52:21;;;;;;;0.60;0.60;;;;;;;-147.86;100.00;-17609.17;104826;1264;71042;-49
2024/01/19 03:54:49;;;;;;;0.60;0.60;;;;;;;-147.86;100.00;-17609.17;104839;1266;63759;-50
2024/01/19 03:57:17;;;;;;;0.60;0.60;;;;;;;-147.86;100.00;-17609.17;104817;1270;70988;-52
2024/01/19 03:59:45;;;;;;;0.40;0.40;;;;;;;-147.86;100.00;-17609.17;105047;1268;235161;-55
2024/01/19 04:02:12;;;;;;;0.70;0.70;;;;;;;-147.86;100.00;-17609.17;105237;1265;59292;-53
2024/01/19 04:04:40;;;;;;;1.30;0.70;;;;;;;-147.86;100.00;-17609.17;105161;1264;71008;-51
2024/01/19 04:07:08;;;;;;;0.60;0.60;;;;;;;-147.86;100.00;-17609.17;105240;1267;63110;-52
2024/01/19 04:09:36;;;;;;;0.50;0.50;;;;;;;-147.86;100.00;-17609.17;105147;1268;71401;-55
2024/01/19 04:12:14;;;;;;;0.50;0.50;;;;;;;-147.86;100.00;-17609.17;105185;1264;59692;-54
2024/01/19 04:14:43;;;;;;;0.30;0.30;;;;;;;-147.86;100.00;-17609.17;105177;1268;60025;-53
2024/01/19 04:17:12;;;;;;;0.50;0.50;;;;;;;-147.86;100.00;-17609.17;105201;1263;71739;-52
2024/01/19 04:19:40;;;;;;;1.40;0.90;;;;;;;-147.86;100.00;-17609.17;105231;1268;63138;-54
2024/01/19 04:22:07;;;;;;;0.70;0.70;;;;;;;-147.86;100.00;-17609.17;104957;1264;72668;-53
2024/01/19 04:24:35;;;;;;;2.70;1.00;;;;;;;-147.86;100.00;-17609.17;105159;1263;60923;-54
2024/01/19 04:27:03;;;;;;;0.50;0.50;;;;;;;-147.86;100.00;-17609.17;105194;1269;59622;-54
2024/01/19 04:29:31;;;;;;;1.00;0.70;;;;;;;-147.86;100.00;-17609.17;105198;1268;71842;-53
2024/01/19 04:31:59;;;;;;;0.60;0.60;;;;;;;-147.86;100.00;-17609.17;105207;1268;63258;-52
2024/01/19 04:34:27;;;;;;;1.10;0.90;;;;;;;-147.86;100.00;-17609.17;105209;1268;71472;-54
2024/01/19 04:36:55;;;;;;;0.80;0.80;;;;;;;-147.86;100.00;-17609.17;105236;1264;60415;-56
2024/01/19 04:39:22;;;;;;;0.60;0.60;;;;;;;-147.86;100.00;-17609.17;105204;1263;59560;-55
2024/01/19 04:41:50;;;;;;;0.70;0.70;;;;;;;-147.86;100.00;-17609.17;105148;1268;73063;-56
2024/01/19 04:44:18;;;;;;;0.90;0.80;;;;;;;-147.86;100.00;-17609.17;105130;1263;62146;-54
2024/01/19 04:46:46;;;;;;;0.70;0.70;;;;;;;-147.86;100.00;-17609.17;105125;1266;71369;-53
2024/01/19 04:49:13;;;;;;;0.90;0.90;;;;;;;-147.86;100.00;-17609.17;105115;1266;60470;-52
2024/01/19 04:51:41;;;;;;;0.90;0.90;;;;;;;-147.86;100.00;-17609.17;105121;1268;59651;-52
2024/01/19 04:54:09;;;;;;;0.70;0.70;;;;;;;-147.86;100.00;-17609.17;105127;1263;70585;-55
2024/01/19 04:56:37;;;;;;;0.60;0.60;;;;;;;-147.86;100.00;-17609.17;105100;1263;64491;-54
2024/01/19 04:59:05;;;;;;;2.00;0.70;;;;;;;-147.86;100.00;-17609.17;105157;1268;72834;-56
2024/01/19 05:01:33;;;;;;;3.50;0.70;;;;;;;-147.86;100.00;-17609.17;105140;1267;60086;-54
2024/01/19 05:04:01;;;;;;;2.00;0.90;;;;;;;-147.86;100.00;-17609.17;105228;1261;59982;-53
2024/01/19 05:06:30;;;;;;;1.40;1.30;;;;;;;-147.86;100.00;-17609.17;105209;1268;70974;-54
2024/01/19 05:08:57;;;;;;;1.40;1.30;;;;;;;-147.86;100.00;-17609.17;105227;1264;64384;-56
2024/01/19 05:11:26;;;;;;;1.40;1.30;;;;;;;-147.86;100.00;-17609.17;105133;1264;71587;-53
2024/01/19 05:13:54;;;;;;;1.50;1.40;;;;;;;-147.86;100.00;-17609.17;105200;1269;59700;-54
2024/01/19 05:16:23;;;;;;;1.70;1.50;;;;;;;-147.86;100.00;-17609.17;105191;1268;59661;-56
2024/01/19 05:18:50;;;;;;;1.80;1.70;;;;;;;-147.86;100.00;-17609.17;105204;1263;71836;-54
2024/01/19 05:21:18;;;;;;;1.90;1.80;;;;;;;-147.86;100.00;-17609.17;105170;1262;63148;-55
2024/01/19 05:23:45;;;;;;;1.20;1.20;;;;;;;-147.86;100.00;-17609.17;105189;1263;71380;-52
2024/01/19 05:26:13;;;;;;;1.40;1.30;;;;;;;-147.86;100.00;-17609.17;105171;1268;61665;-52
2024/01/19 05:28:41;;;;;;;1.80;1.70;;;;;;;-147.86;100.00;-17609.17;105194;1269;59653;-55
2024/01/19 05:31:09;;;;;;;1.80;1.70;;;;;;;-147.86;100.00;-17609.17;105216;1266;72091;-54
2024/01/19 05:33:38;;;;;;;1.50;1.40;;;;;;;-147.86;100.00;-17609.17;105179;1261;62483;-54
2024/01/19 05:36:07;;;;;;;1.50;1.40;;;;;;;-147.86;100.00;-17609.17;105181;1267;72291;-55
2024/01/19 05:38:35;;;;;;;1.50;1.40;;;;;;;-147.86;100.00;-17609.17;105157;1268;60448;-56
2024/01/19 05:41:02;;;;;;;1.60;1.50;;;;;;;-147.86;100.00;-17609.17;105187;1267;59694;-56
2024/01/19 05:43:30;;;;;;;1.50;1.40;;;;;;;-147.86;100.00;-17609.17;105185;1263;73078;-56
2024/01/19 05:45:58;;;;;;;1.10;1.10;;;;;;;-147.86;100.00;-17609.17;105231;1265;64345;-55
2024/01/19 05:48:26;;;;;;;1.40;1.40;;;;;;;-147.86;100.00;-17609.17;105217;1265;70854;-53
2024/01/19 05:50:54;;;;;;;1.30;1.20;;;;;;;-147.86;100.00;-17609.17;105241;1262;59801;-55
2024/01/19 05:53:22;;;;;;;2.20;1.70;;;;;;;-147.86;100.00;-17609.17;105210;1266;59642;-54
2024/01/19 05:55:50;;;;;;;1.40;1.40;;;;;;;-147.86;100.00;-17609.17;105213;1260;71732;-56
2024/01/19 05:58:17;;;;;;;1.40;1.40;;;;;;;-147.86;100.00;-17609.17;105231;1265;63307;-55
2024/01/19 06:00:45;;;;;;;1.80;1.70;;;;;;;-147.86;100.00;-17609.17;105201;1266;71386;-56
2024/01/19 06:03:13;;;;;;;2.60;1.30;;;;;;;-147.86;100.00;-17609.17;105274;1263;60399;-57
2024/01/19 06:05:41;;;;;;;1.70;1.60;;;;;;;-147.86;100.00;-17609.17;105222;1260;61847;-55
2024/01/19 06:08:08;;;;;;;1.90;1.80;;;;;;;-147.86;100.00;-17609.17;105237;1265;73123;-54
2024/01/19 06:10:36;;;;;;;2.10;2.00;;;;;;;-147.86;100.00;-17609.17;105198;1265;64722;-54
2024/01/19 06:13:04;;;;;;;2.80;2.60;;;;;;;-147.86;100.00;-17609.17;105235;1265;74963;-55
2024/01/19 06:15:32;;;;;;;3.00;2.80;;;;;;;-147.86;100.00;-17609.17;105230;1265;60754;-53
2024/01/19 06:17:59;;;;;;;3.00;2.80;;;;;;;-147.86;100.00;-17609.17;105219;1260;62138;-56
2024/01/19 06:20:28;;;;;;;3.10;2.90;;;;;;;-147.86;100.00;-17609.17;105890;1253;71875;-56
2024/01/19 06:22:55;;;;;;;4.30;3.90;;;;;;;-147.86;100.00;-17609.17;105928;1256;63199;-57
2024/01/19 06:25:23;;;;;;;4.50;3.50;;;;;;;-147.86;100.00;-17609.17;105842;1257;71860;-55
2024/01/19 06:27:50;;;;;;;4.20;3.70;;;;;;;-147.86;100.00;-17609.17;105844;1253;60715;-55
2024/01/19 06:30:18;;;;;;;4.10;3.70;;;;;;;-147.86;100.00;-17609.17;105832;1257;60251;-56
2024/01/19 06:32:46;;;;;;;3.60;3.30;;;;;;;-147.86;100.00;-17609.17;105846;1260;72202;-56
2024/01/19 06:35:14;;;;;;;6.80;3.20;;;;;;;-147.86;100.00;-17609.17;105891;1259;62124;-56
2024/01/19 06:37:42;;;;;;;3.60;3.30;;;;;;;-147.86;100.00;-17609.17;105829;1258;71362;-56
2024/01/19 06:40:10;;;;;;;3.70;3.50;;;;;;;-147.86;100.00;-17609.17;105841;1253;59833;-56
2024/01/19 06:42:38;;;;;;;3.70;3.50;;;;;;;-147.86;100.00;-17609.17;105886;1257;60011;-55
2024/01/19 06:45:06;;;;;;;3.90;3.60;;;;;;;-147.86;100.00;-17609.17;105825;1257;72806;-55
2024/01/19 06:47:34;;;;;;;4.00;3.70;;;;;;;-147.86;100.00;-17609.17;105879;1255;63510;-53
2024/01/19 06:50:03;;;;;;;4.40;4.10;;;;;;;-147.86;100.00;-17609.17;105895;1256;71359;-54
2024/01/19 06:52:31;;;;;;;4.40;4.10;;;;;;;-147.86;100.00;-17609.17;105866;1253;60042;-53
2024/01/19 06:54:59;;;;;;;4.40;4.00;;;;;;;-147.86;100.00;-17609.17;105913;1257;60028;-53
2024/01/19 06:57:27;;;;;;;4.30;3.90;;;;;;;-147.86;100.00;-17609.17;105860;1254;71722;-55
2024/01/19 06:59:54;;;;;;;4.80;4.30;;;;;;;-147.86;100.00;-17609.17;105881;1257;64956;-55
2024/01/19 07:02:23;;;;;;;5.40;4.80;;;;;;;-147.86;100.00;-17609.17;105858;1256;72944;-54
2024/01/19 07:04:50;;;;;;;4.80;4.40;;;;;;;-147.86;100.00;-17609.17;105713;1259;59938;-53
2024/01/19 07:07:18;;;;;;;4.00;3.70;;;;;;;-147.86;100.00;-17609.17;105823;1257;60071;-55
2024/01/19 07:09:46;;;;;;;5.20;4.60;;;;;;;-147.86;100.00;-17609.17;105850;1257;73029;-55
2024/01/19 07:12:16;;;;;;;4.50;4.20;;;;;;;-147.86;100.00;-17609.17;105861;1257;63355;-54
2024/01/19 07:14:44;;;;;;;4.80;4.40;;;;;;;-147.86;100.00;-17609.17;105876;1253;71285;-56
2024/01/19 07:17:12;;;;;;;4.70;4.30;;;;;;;-147.86;100.00;-17609.17;105822;1257;62484;-54
2024/01/19 07:19:43;;;;;;;5.30;4.80;;;;;;;-147.86;100.00;-17609.17;105829;1257;60457;-56
2024/01/19 07:22:11;;;;;;;5.20;4.70;;;;;;;-147.86;100.00;-17609.17;105863;1256;72917;-54
2024/01/19 07:24:38;;;;;;;5.00;4.50;;;;;;;-147.86;100.00;-17609.17;105885;1264;63138;-56
2024/01/19 07:27:06;;;;;;;4.50;4.20;;;;;;;-147.86;100.00;-17609.17;105834;1254;71755;-54
2024/01/19 07:29:34;;;;;;;5.40;5.00;;;;;;;-147.86;100.00;-17609.17;105891;1257;60650;-53
2024/01/19 07:32:02;;;;;;;5.60;5.10;;;;;;;-147.86;100.00;-17609.17;105881;1264;59670;-55
2024/01/19 07:34:29;;;;;;;6.00;5.10;;;;;;;-147.86;100.00;-17609.17;105869;1251;72003;-56
2024/01/19 07:36:57;;;;;;;5.20;4.70;;;;;;;-147.86;100.00;-17609.17;105832;1258;65036;-55
2024/01/19 07:39:26;;;;;;;4.50;4.20;;;;;;;-147.86;100.00;-17609.17;105859;1252;71358;-56
2024/01/19 07:41:54;;;;;;;4.90;4.50;;;;;;;-147.86;100.00;-17609.17;105843;1257;60187;-56
2024/01/19 07:44:22;;;;;;;5.00;4.60;;;;;;;-147.86;100.00;-17609.17;105908;1254;62806;-57
2024/01/19 07:46:50;;;;;;;4.90;4.50;;;;;;;-147.86;100.00;-17609.17;105899;1251;75143;-53
2024/01/19 07:49:21;;;;;;;5.20;4.80;;;;;;;-147.86;100.00;-17609.17;105852;1253;65361;-54
2024/01/19 07:51:49;;;;;;;6.20;4.80;;;;;;;-147.86;100.00;-17609.17;105867;1253;71246;-56
2024/01/19 07:54:20;;;;;;;6.30;5.70;;;;;;;-147.86;100.00;-17609.17;105891;1253;60486;-54
2024/01/19 07:56:48;;;;;;;7.20;5.30;;;;;;;-147.86;100.00;-17609.17;105860;1255;61979;-56
2024/01/19 07:59:16;;;;;;;5.50;5.00;;;;;;;-147.86;100.00;-17609.17;105876;1257;73201;-57
2024/01/19 08:01:45;;;;;;;5.70;5.20;;;;;;;-147.86;100.00;-17609.17;105889;1257;66192;-57
2024/01/19 08:04:13;;;;;;;5.90;5.30;;;;;;;-147.86;100.00;-17609.17;105894;1258;72969;-56
2024/01/19 08:06:41;;;;;;;6.20;5.60;;;;;;;-147.86;100.00;-17609.17;105877;1254;62675;-57
2024/01/19 08:09:11;;;;;;;5.70;5.20;;;;;;;-147.86;100.00;-17609.17;105719;1254;60643;-56
2024/01/19 08:11:39;;;;;;;6.50;5.50;;;;;;;-147.86;100.00;-17609.17;105838;1257;74199;-56
2024/01/19 08:14:08;;;;;;;6.60;6.00;;;;;;;-147.86;100.00;-17609.17;105894;1257;64795;-53
2024/01/19 08:16:36;;;;;;;6.20;5.60;;;;;;;-147.86;100.00;-17609.17;105861;1254;74251;-57
2024/01/19 08:19:04;;;;;;;5.90;5.40;;;;;;;-147.86;100.00;-17609.17;105871;1259;60435;-56
2024/01/19 08:21:32;;;;;;;7.40;6.30;;;;;;;-147.86;100.00;-17609.17;105855;1254;60455;-56
2024/01/19 08:24:01;;;;;;;5.70;5.20;;;;;;;-147.86;100.00;-17609.17;105812;1266;73367;-57
2024/01/19 08:26:29;;;;;;;6.80;6.10;;;;;;;-147.86;100.00;-17609.17;105766;1254;64295;-56
2024/01/19 08:28:57;;;;;;;8.50;5.50;;;;;;;-147.86;100.00;-17609.17;105649;1254;74555;-56
2024/01/19 08:31:25;;;;;;;6.30;5.70;;;;;;;-147.86;100.00;-17609.17;105801;1256;60452;-53
2024/01/19 08:33:53;;;;;;;5.80;5.30;;;;;;;-147.86;100.00;-17609.17;105851;1262;60351;-56
2024/01/19 08:36:24;;;;;;;6.30;5.70;;;;;;;-147.86;100.00;-17609.17;105874;1260;75377;-57
2024/01/19 08:38:51;;;;;;;8.10;5.00;;;;;;;-147.86;100.00;-17609.17;105874;1258;66790;-55
2024/01/19 08:41:23;;;;;;;5.80;5.20;;;;;;;-147.86;100.00;-17609.17;105926;1253;72598;-57
2024/01/19 08:43:51;;;;;;;5.50;4.90;;;;;;;-147.86;100.00;-17609.17;105900;1257;60638;-55
2024/01/19 08:46:19;;;;;;;5.40;4.90;;;;;;;-147.86;100.00;-17609.17;105852;1253;60639;-54
2024/01/19 08:48:47;;;;;;;4.80;4.50;;;;;;;-147.86;100.00;-17609.17;105829;1257;73450;-53
2024/01/19 08:51:20;;;;;;;4.90;4.60;;;;;;;-147.86;100.00;-17609.17;105890;1257;64958;-54
2024/01/19 08:53:48;;;;;;;5.00;4.60;;;;;;;-147.86;100.00;-17609.17;105860;1254;71382;-56
2024/01/19 08:56:22;;;;;;;7.70;5.00;;;;;;;-147.86;100.00;-17609.17;105910;1256;60445;-55
2024/01/19 08:58:50;;;;;;;4.60;4.30;;;;;;;-147.86;100.00;-17609.17;105865;1257;60452;-55
2024/01/19 09:01:18;;;;;;;5.40;4.90;;;;;;;-147.86;100.00;-17609.17;105839;1254;75670;-54
2024/01/19 09:03:47;;;;;;;4.70;4.30;;;;;;;-147.86;100.00;-17609.17;105889;1259;66362;-54
2024/01/19 09:06:15;;;;;;;4.90;4.50;;;;;;;-147.86;100.00;-17609.17;105901;1257;72082;-55
2024/01/19 09:08:44;;;;;;;6.10;5.50;;;;;;;-147.86;100.00;-17609.17;105863;1257;62361;-55
2024/01/19 09:11:12;;;;;;;6.60;5.20;;;;;;;-147.86;100.00;-17609.17;105866;1251;62035;-55
2024/01/19 09:13:40;;;;;;;4.50;4.20;;;;;;;-147.86;100.00;-17609.17;105880;1258;74205;-54
2024/01/19 09:16:08;;;;;;;5.30;4.80;;;;;;;-147.86;100.00;-17609.17;105828;1257;65316;-54
2024/01/19 09:18:36;;;;;;;5.00;4.60;;;;;;;-147.86;100.00;-17609.17;105854;1258;73923;-55
2024/01/19 09:21:04;;;;;;;5.90;5.40;;;;;;;-147.86;100.00;-17609.17;105890;1258;60381;-55
2024/01/19 09:23:32;;;;;;;7.90;5.90;;;;;;;-147.86;100.00;-17609.17;105811;1254;61987;-54
2024/01/19 09:26:00;;;;;;;8.40;5.40;;;;;;;-147.86;100.00;-17609.17;105820;1257;73918;-55
2024/01/19 09:28:28;;;;;;;6.10;5.60;;;;;;;-147.86;100.00;-17609.17;105885;1252;64629;-56
2024/01/19 09:30:56;;;;;;;5.50;5.00;;;;;;;-147.86;100.00;-17609.17;105832;1256;74996;-55
2024/01/19 09:33:23;;;;;;;6.00;5.50;;;;;;;-147.86;100.00;-17609.17;105857;1257;60544;-55
2024/01/19 09:35:52;;;;;;;7.10;6.40;;;;;;;-147.86;100.00;-17609.17;105883;1254;60514;-56
2024/01/19 09:38:23;;;;;;;7.40;6.70;;;;;;;-147.86;100.00;-17609.17;105872;1254;73095;-54
2024/01/19 09:40:52;;;;;;;7.00;6.30;;;;;;;-147.86;100.00;-17609.17;105925;1256;65654;-53
2024/01/19 09:43:19;;;;;;;8.80;6.00;;;;;;;-147.86;100.00;-17609.17;105912;1254;74465;-55
2024/01/19 09:45:48;;;;;;;7.80;6.30;;;;;;;-147.86;100.00;-17609.17;105678;1257;61894;-53
2024/01/19 09:48:23;;;;;;;5.70;5.20;;;;;;;-147.86;100.00;-17609.17;105889;1254;61880;-52
2024/01/19 09:50:52;;;;;;;7.20;5.60;;;;;;;-147.86;100.00;-17609.17;105944;1252;75045;-55
2024/01/19 09:53:22;;;;;;;8.50;6.10;;;;;;;-147.86;100.00;-17609.17;105828;1254;63840;-54
2024/01/19 09:55:49;;;;;;;6.90;5.70;;;;;;;-147.86;100.00;-17609.17;105911;1253;70886;-55
2024/01/19 09:58:20;;;;;;;6.60;5.40;;;;;;;-147.86;100.00;-17609.17;105826;1254;63494;-56
2024/01/19 10:00:50;;;;;;;6.30;5.10;;;;;;;-147.86;100.00;-17609.17;105848;1257;60349;-53
2024/01/19 10:03:18;;;;;;;7.50;5.90;;;;;;;-147.86;100.00;-17609.17;105922;1257;73964;-56
2024/01/19 10:05:48;;;;;;;8.00;5.90;;;;;;;-147.86;100.00;-17609.17;105855;1257;66755;-53
2024/01/19 10:08:16;;;;;;;7.70;6.80;;;;;;;-147.86;100.00;-17609.17;105711;1258;72730;-56
2024/01/19 10:10:44;;;;;;;8.00;6.40;;;;;;;-147.86;100.00;-17609.17;105861;1257;61937;-54
2024/01/19 10:13:12;;;;;;;9.40;7.40;;;;;;;-147.86;100.00;-17609.17;105841;1254;61141;-55
2024/01/19 10:15:42;;;;;;;10.70;8.70;;;;;;;-147.86;100.00;-17609.17;105830;1257;73286;-54
2024/01/19 10:19:40;;;;;;;10.40;7.90;;;;;;;-147.86;100.00;-17609.17;102839;1289;599736;-53
2024/01/19 10:22:28;;;;;;;8.70;7.10;;;;;;;-147.86;100.00;-17609.17;104790;1273;64241;-56
2024/01/19 10:25:12;;;;;;;8.70;7.50;;;;;;;-147.86;100.00;-17609.17;104868;1270;61089;-51
2024/01/19 10:27:48;;;;;;;12.50;9.00;;;;;;;-147.86;100.00;-17609.17;104886;1269;72085;-55
2024/01/19 10:30:19;;;;;;;12.20;8.50;;;;;;;-147.86;100.00;-17609.17;104911;1269;66516;-54
2024/01/19 10:32:49;;;;;;;11.10;9.00;;;;;;;-147.86;100.00;-17609.17;104792;1267;240874;-53
2024/01/19 10:35:19;;;;;;;15.70;9.50;;;;;;;-147.86;100.00;-17609.17;105260;1266;64057;-54
2024/01/19 10:37:47;;;;;;;13.30;9.70;;;;;;;-147.86;100.00;-17609.17;105266;1260;59987;-55
2024/01/19 10:40:22;;;;;;;12.20;8.80;;;;;;;-147.86;100.00;-17609.17;105194;1267;71523;-53
2024/01/19 10:42:54;;;;;;;10.10;8.20;;;;;;;-147.86;100.00;-17609.17;105058;1269;66809;-55
2024/01/19 10:45:23;;;;;;;11.70;8.60;;;;;;;-147.86;100.00;-17609.17;104902;1269;71216;-54
2024/01/19 10:47:53;;;;;;;10.10;8.40;;;;;;;-147.86;100.00;-17609.17;105007;1269;59697;-55
2024/01/19 10:50:24;;;;;;;9.30;7.90;;;;;;;-147.86;100.00;-17609.17;105006;1268;59544;-53
2024/01/19 10:52:53;;;;;;;11.80;8.40;;;;;;;-147.86;100.00;-17609.17;104989;1269;73503;-54
2024/01/19 10:55:22;;;;;;;9.00;7.40;;;;;;;-147.86;100.00;-17609.17;104979;1270;66939;-57
2024/01/19 10:58:13;;;;;;;9.60;7.40;;;;;;;-147.86;100.00;-17609.17;105006;1263;74615;-55
2024/01/19 11:00:44;;;;;;;10.30;8.60;;;;;;;-147.86;100.00;-17609.17;104991;1270;60472;-55
2024/01/19 11:03:12;;;;;;;9.50;8.50;;;;;;;-147.86;100.00;-17609.17;104859;1268;62274;-55
2024/01/19 11:05:40;;;;;;;12.00;9.00;;;;;;;-147.86;100.00;-17609.17;105009;1269;72973;-52
2024/01/19 11:08:09;;;;;;;9.00;8.00;;;;;;;-147.86;100.00;-17609.17;104847;1269;66858;-55
2024/01/19 11:10:36;;;;;;;9.30;8.30;;;;;;;-147.86;100.00;-17609.17;104854;1267;73205;-54
2024/01/19 11:13:04;;;;;;;9.10;8.00;;;;;;;-147.86;100.00;-17609.17;105015;1268;60952;-53
2024/01/19 11:15:45;;;;;;;8.00;7.10;;;;;;;-147.86;100.00;-17609.17;104852;1268;60244;-52